Time;durP1;ratioP1;P1;durP2;ratioP2;P2;SDS_P1;SDS_P2;PMS_P1;PMS_P2;Temp;Humidity;BMP_temperature;BMP_pressure;BME280_temperature;BME280_humidity;BME280_pressure;Samples;Min_cycle;Max_cycle;Signal;HPM_P1;HPM_P2
2022/01/31 00:00:15;;;;;;;0.00;0.00;;;3.40;99.90;;;;;;5060451;28;20088;-68
2022/01/31 00:02:42;;;;;;;0.00;0.00;;;3.40;99.90;;;;;;5059906;28;20072;-67
2022/01/31 00:05:09;;;;;;;0.00;0.00;;;3.40;99.90;;;;;;5060973;28;20419;-67
2022/01/31 00:07:34;;;;;;;0.00;0.00;;;3.40;99.90;;;;;;5061228;28;20044;-67
2022/01/31 00:10:05;;;;;;;1.40;0.77;;;3.40;99.90;;;;;;5061611;28;20068;-67
2022/01/31 00:12:35;;;;;;;0.00;0.00;;;3.40;99.90;;;;;;5059633;28;20726;-67
2022/01/31 00:15:03;;;;;;;0.00;0.00;;;3.40;99.90;;;;;;5059903;28;20092;-67
2022/01/31 00:17:29;;;;;;;0.00;0.00;;;3.40;99.90;;;;;;5059297;28;20411;-67
2022/01/31 00:19:54;;;;;;;1.65;1.55;;;3.50;99.90;;;;;;5063977;28;20037;-67
2022/01/31 00:22:20;;;;;;;0.00;0.00;;;3.40;99.90;;;;;;5066387;28;20534;-67
2022/01/31 00:24:46;;;;;;;0.00;0.00;;;3.40;99.90;;;;;;5067664;28;20041;-67
2022/01/31 00:27:11;;;;;;;0.00;0.00;;;3.50;99.90;;;;;;5084593;28;20040;-67
2022/01/31 00:29:37;;;;;;;0.00;0.00;;;3.40;99.90;;;;;;5076059;28;20041;-67
2022/01/31 00:32:03;;;;;;;0.00;0.00;;;3.40;99.90;;;;;;5065774;28;20048;-67
2022/01/31 00:34:29;;;;;;;0.00;0.00;;;3.40;99.90;;;;;;5066641;28;20115;-67
2022/01/31 00:36:55;;;;;;;0.20;0.20;;;3.40;99.90;;;;;;5068228;28;20119;-67
2022/01/31 00:39:21;;;;;;;0.00;0.00;;;3.40;99.90;;;;;;5065337;28;20079;-67
2022/01/31 00:41:46;;;;;;;0.00;0.00;;;3.30;99.90;;;;;;5066098;28;20515;-67
2022/01/31 00:44:24;;;;;;;0.00;0.00;;;4.50;99.90;;;;;;5067721;28;20064;-67
2022/01/31 00:46:55;;;;;;;1.00;0.25;;;3.40;99.90;;;;;;5065996;28;20055;-67
2022/01/31 00:51:49;;;;;;;1.65;0.57;;;3.40;99.90;;;;;;5067202;28;20060;-67
2022/01/31 00:54:15;;;;;;;0.00;0.00;;;3.40;99.90;;;;;;5066377;28;20406;-68
2022/01/31 00:56:41;;;;;;;0.00;0.00;;;3.40;99.90;;;;;;5066844;28;20125;-67
2022/01/31 00:59:07;;;;;;;0.20;0.20;;;3.40;99.90;;;;;;5067230;28;20052;-67
2022/01/31 01:01:32;;;;;;;0.00;0.00;;;3.40;99.90;;;;;;5066755;28;20128;-67
2022/01/31 01:03:58;;;;;;;0.00;0.00;;;3.40;99.90;;;;;;5066774;28;20438;-67
2022/01/31 01:06:23;;;;;;;0.00;0.00;;;3.40;99.90;;;;;;5065296;28;20380;-67
2022/01/31 01:08:49;;;;;;;0.00;0.00;;;3.40;99.90;;;;;;5066191;28;20044;-67
2022/01/31 01:11:15;;;;;;;0.00;0.00;;;3.40;99.90;;;;;;5067143;28;20052;-68
2022/01/31 01:13:40;;;;;;;0.15;0.15;;;3.50;99.90;;;;;;5067061;28;20110;-67
2022/01/31 01:16:06;;;;;;;0.38;0.38;;;3.40;99.90;;;;;;5065890;28;20094;-67
2022/01/31 01:18:32;;;;;;;0.00;0.00;;;3.50;99.90;;;;;;5066090;28;20049;-66
2022/01/31 01:20:57;;;;;;;0.05;0.05;;;3.50;99.90;;;;;;5066212;28;20047;-67
2022/01/31 01:23:23;;;;;;;0.10;0.10;;;3.50;99.90;;;;;;5065880;28;20052;-67
2022/01/31 01:25:50;;;;;;;0.00;0.00;;;3.50;99.90;;;;;;5066862;28;20704;-67
2022/01/31 01:28:15;;;;;;;0.00;0.00;;;3.40;99.90;;;;;;5073980;28;20039;-67
2022/01/31 01:30:41;;;;;;;0.00;0.00;;;3.40;99.90;;;;;;5068057;28;20041;-66
2022/01/31 01:33:17;;;;;;;0.10;0.10;;;3.40;99.90;;;;;;5063726;28;20060;-66
2022/01/31 01:35:43;;;;;;;0.28;0.28;;;3.40;99.90;;;;;;5062388;28;20136;-67
2022/01/31 01:38:10;;;;;;;0.00;0.00;;;3.30;99.90;;;;;;5063959;28;20075;-67
2022/01/31 01:40:38;;;;;;;0.00;0.00;;;3.30;99.90;;;;;;5063669;28;20041;-66
2022/01/31 01:43:04;;;;;;;0.20;0.10;;;3.20;99.90;;;;;;5062225;28;20086;-66
2022/01/31 01:45:30;;;;;;;0.00;0.00;;;4.00;99.90;;;;;;5061994;28;20092;-66
2022/01/31 01:47:56;;;;;;;0.00;0.00;;;2.10;99.90;;;;;;5063806;28;20052;-66
2022/01/31 01:50:22;;;;;;;0.00;0.00;;;3.10;99.90;;;;;;5062164;28;20132;-66
2022/01/31 01:52:50;;;;;;;0.55;0.20;;;3.10;99.90;;;;;;5063180;28;20425;-67
2022/01/31 01:55:16;;;;;;;0.00;0.00;;;1.40;99.90;;;;;;5063964;28;20048;-67
2022/01/31 01:57:42;;;;;;;0.00;0.00;;;3.00;99.90;;;;;;5063506;28;20051;-66
2022/01/31 02:00:15;;;;;;;0.00;0.00;;;3.80;99.90;;;;;;5063087;28;20051;-66
2022/01/31 02:05:15;;;;;;;0.00;0.00;;;2.80;99.90;;;;;;5078869;22;20121;-67
2022/01/31 02:07:41;;;;;;;0.00;0.00;;;2.70;99.90;;;;;;5061537;28;20486;-67
2022/01/31 02:10:07;;;;;;;0.00;0.00;;;2.70;99.90;;;;;;5082401;28;20101;-66
2022/01/31 02:12:48;;;;;;;0.20;0.20;;;2.70;99.90;;;;;;5083296;28;20036;-66
2022/01/31 02:15:16;;;;;;;0.00;0.00;;;2.60;99.90;;;;;;5082867;28;20249;-66
2022/01/31 02:17:42;;;;;;;0.52;0.52;;;3.00;99.90;;;;;;5064443;28;20137;-67
2022/01/31 02:20:10;;;;;;;0.28;0.28;;;2.50;99.90;;;;;;5065555;28;20087;-67
2022/01/31 02:22:36;;;;;;;0.10;0.10;;;2.40;99.90;;;;;;5083483;28;20115;-66
2022/01/31 02:25:04;;;;;;;0.00;0.00;;;2.40;99.90;;;;;;5064809;28;20397;-67
2022/01/31 02:27:32;;;;;;;0.15;0.15;;;2.30;99.90;;;;;;5059752;28;20049;-67
2022/01/31 02:29:58;;;;;;;0.00;0.00;;;2.30;99.90;;;;;;5072308;28;20434;-66
2022/01/31 02:32:24;;;;;;;0.00;0.00;;;2.30;99.90;;;;;;5044100;28;20037;-67
2022/01/31 02:34:51;;;;;;;0.00;0.00;;;2.20;99.90;;;;;;5062194;28;20044;-67
2022/01/31 02:37:18;;;;;;;0.00;0.00;;;2.20;99.90;;;;;;5062730;28;20101;-67
2022/01/31 02:39:44;;;;;;;0.20;0.20;;;2.10;99.90;;;;;;5062855;28;20046;-66
2022/01/31 02:42:10;;;;;;;4.10;0.70;;;2.10;99.90;;;;;;5044646;28;20121;-66
2022/01/31 02:44:43;;;;;;;0.00;0.00;;;2.00;99.90;;;;;;5062129;28;20511;-67
2022/01/31 02:47:13;;;;;;;1.42;1.38;;;3.70;99.90;;;;;;5060415;28;20049;-66
2022/01/31 02:52:36;;;;;;;0.00;0.00;;;1.90;99.90;;;;;;5027138;28;20052;-67
2022/01/31 02:55:05;;;;;;;0.10;0.10;;;1.90;99.90;;;;;;5062641;28;20110;-67
2022/01/31 02:57:30;;;;;;;0.10;0.10;;;1.80;99.90;;;;;;5062160;28;20080;-66
2022/01/31 02:59:56;;;;;;;0.00;0.00;;;1.70;99.90;;;;;;5062962;28;20083;-67
2022/01/31 03:02:22;;;;;;;0.00;0.00;;;1.80;99.90;;;;;;5061301;28;20490;-67
2022/01/31 03:04:47;;;;;;;0.00;0.00;;;1.80;99.90;;;;;;5044584;28;20053;-66
2022/01/31 03:07:13;;;;;;;0.30;0.30;;;1.80;99.90;;;;;;5043625;28;20056;-67
2022/01/31 03:09:39;;;;;;;0.00;0.00;;;1.80;99.90;;;;;;5062293;28;20040;-66
2022/01/31 03:12:05;;;;;;;0.20;0.20;;;1.90;99.90;;;;;;5062675;28;20040;-67
2022/01/31 03:14:31;;;;;;;0.43;0.28;;;1.90;99.90;;;;;;5062185;28;20123;-66
2022/01/31 03:16:57;;;;;;;0.00;0.00;;;1.90;99.90;;;;;;5061178;28;20049;-66
2022/01/31 03:19:23;;;;;;;0.00;0.00;;;2.00;99.90;;;;;;5062162;28;20433;-66
2022/01/31 03:21:48;;;;;;;0.43;0.43;;;2.00;99.90;;;;;;5061820;28;20059;-69
2022/01/31 03:24:14;;;;;;;0.10;0.10;;;1.90;99.90;;;;;;5044118;28;20044;-68
2022/01/31 03:26:41;;;;;;;0.00;0.00;;;2.00;99.90;;;;;;5043868;28;20510;-69
2022/01/31 03:29:07;;;;;;;0.00;0.00;;;2.00;99.90;;;;;;5055014;28;20135;-69
2022/01/31 03:31:33;;;;;;;0.00;0.00;;;2.10;99.90;;;;;;5043124;28;20060;-70
2022/01/31 03:33:59;;;;;;;0.10;0.10;;;2.10;99.90;;;;;;5062795;28;20040;-69
2022/01/31 03:36:25;;;;;;;0.47;0.47;;;2.10;99.90;;;;;;5061304;28;20047;-67
2022/01/31 03:38:51;;;;;;;0.28;0.28;;;2.10;99.90;;;;;;5061626;28;20072;-67
2022/01/31 03:41:20;;;;;;;0.00;0.00;;;2.10;99.90;;;;;;5044059;28;20040;-67
2022/01/31 03:43:45;;;;;;;0.22;0.20;;;2.20;99.90;;;;;;5061472;28;20824;-67
2022/01/31 03:46:11;;;;;;;0.00;0.00;;;2.50;99.90;;;;;;5059273;28;20091;-68
2022/01/31 03:48:37;;;;;;;0.10;0.10;;;2.20;99.90;;;;;;5061344;28;20110;-68
2022/01/31 03:51:04;;;;;;;0.00;0.00;;;2.20;99.90;;;;;;5043950;28;20047;-67
2022/01/31 03:53:30;;;;;;;0.00;0.00;;;2.30;99.90;;;;;;5060415;28;20050;-68
2022/01/31 03:55:56;;;;;;;0.38;0.38;;;2.30;99.90;;;;;;5062014;28;20044;-68
2022/01/31 03:58:22;;;;;;;0.15;0.15;;;2.60;99.90;;;;;;5061385;28;20095;-69
2022/01/31 04:00:48;;;;;;;0.00;0.00;;;2.30;99.90;;;;;;5060699;28;20545;-67
2022/01/31 04:03:14;;;;;;;0.00;0.00;;;2.30;99.90;;;;;;5060258;28;20063;-67
2022/01/31 04:05:40;;;;;;;0.05;0.05;;;2.30;99.90;;;;;;5061429;28;20095;-68
2022/01/31 04:08:06;;;;;;;0.15;0.15;;;2.30;99.90;;;;;;5061285;28;20036;-67
2022/01/31 04:10:32;;;;;;;0.00;0.00;;;2.30;99.90;;;;;;5061328;28;20642;-67
2022/01/31 04:12:58;;;;;;;0.00;0.00;;;2.30;99.90;;;;;;5059885;28;20110;-67
2022/01/31 04:15:24;;;;;;;0.00;0.00;;;2.30;99.90;;;;;;5060327;28;20047;-68
2022/01/31 04:17:49;;;;;;;0.00;0.00;;;2.30;99.90;;;;;;5060995;28;20491;-67
2022/01/31 04:20:16;;;;;;;0.00;0.00;;;2.40;99.90;;;;;;5060991;28;20131;-66
2022/01/31 04:22:52;;;;;;;0.00;0.00;;;2.40;99.90;;;;;;5060738;28;20457;-69
2022/01/31 04:28:04;;;;;;;0.00;0.00;;;2.40;99.90;;;;;;5048051;28;20116;-66
2022/01/31 04:30:32;;;;;;;0.00;0.00;;;2.50;99.90;;;;;;5065570;28;20033;-66
2022/01/31 04:32:57;;;;;;;0.00;0.00;;;2.50;99.90;;;;;;5043829;28;20059;-69
2022/01/31 04:35:23;;;;;;;0.00;0.00;;;2.40;99.90;;;;;;5061030;28;20036;-69
2022/01/31 04:37:49;;;;;;;0.00;0.00;;;2.70;99.90;;;;;;5060437;28;20056;-69
2022/01/31 04:40:15;;;;;;;4.07;0.52;;;2.90;99.90;;;;;;5043095;28;20494;-70
2022/01/31 04:42:43;;;;;;;0.00;0.00;;;3.00;99.90;;;;;;5060923;28;20063;-69
2022/01/31 04:45:10;;;;;;;0.00;0.00;;;3.20;99.90;;;;;;5041761;28;20293;-69
2022/01/31 04:47:35;;;;;;;0.00;0.00;;;3.20;99.90;;;;;;5060360;28;20457;-67
2022/01/31 04:50:03;;;;;;;0.00;0.00;;;3.40;99.90;;;;;;5043645;28;20044;-66
2022/01/31 04:52:28;;;;;;;0.00;0.00;;;3.70;99.90;;;;;;5042810;28;20051;-67
2022/01/31 04:54:54;;;;;;;0.00;0.00;;;3.60;99.90;;;;;;5060868;28;20048;-67
2022/01/31 04:57:19;;;;;;;0.00;0.00;;;3.70;99.90;;;;;;5060290;28;20056;-67
2022/01/31 04:59:45;;;;;;;0.00;0.00;;;3.70;99.90;;;;;;5060461;28;20086;-67
2022/01/31 05:02:11;;;;;;;0.00;0.00;;;3.70;99.90;;;;;;5059956;28;20048;-67
2022/01/31 05:04:37;;;;;;;0.00;0.00;;;3.70;99.90;;;;;;5059283;28;20076;-67
2022/01/31 05:07:03;;;;;;;0.00;0.00;;;3.70;99.90;;;;;;5062960;28;20057;-67
2022/01/31 05:09:29;;;;;;;0.00;0.00;;;3.70;99.90;;;;;;5063736;28;20593;-69
2022/01/31 05:11:54;;;;;;;0.00;0.00;;;3.70;99.90;;;;;;5046700;28;20131;-67
2022/01/31 05:14:20;;;;;;;0.00;0.00;;;3.70;99.90;;;;;;5063918;28;20092;-67
2022/01/31 05:16:46;;;;;;;0.00;0.00;;;3.70;99.90;;;;;;5044938;28;20044;-67
2022/01/31 05:19:12;;;;;;;0.00;0.00;;;3.70;99.90;;;;;;5064230;28;20114;-67
2022/01/31 05:21:38;;;;;;;0.00;0.00;;;3.70;99.90;;;;;;5046494;28;20190;-67
2022/01/31 05:24:04;;;;;;;0.00;0.00;;;3.70;99.90;;;;;;5064382;28;20045;-67
2022/01/31 05:26:30;;;;;;;0.00;0.00;;;3.80;99.90;;;;;;5063629;28;20699;-67
2022/01/31 05:28:56;;;;;;;0.00;0.00;;;3.90;99.90;;;;;;5075746;28;20044;-67
2022/01/31 05:31:22;;;;;;;0.00;0.00;;;4.10;99.90;;;;;;5063321;28;20048;-68
2022/01/31 05:33:47;;;;;;;0.00;0.00;;;4.10;99.90;;;;;;5046109;28;20557;-67
2022/01/31 05:36:13;;;;;;;0.00;0.00;;;4.20;99.90;;;;;;5063511;28;20765;-66
2022/01/31 05:38:40;;;;;;;0.00;0.00;;;4.20;99.90;;;;;;5046058;28;20052;-69
2022/01/31 05:41:08;;;;;;;0.00;0.00;;;5.00;99.90;;;;;;5064213;28;20071;-69
2022/01/31 05:43:34;;;;;;;0.00;0.00;;;4.20;99.90;;;;;;5063007;28;20046;-69
2022/01/31 05:46:00;;;;;;;0.00;0.00;;;4.30;99.90;;;;;;5045208;28;20355;-66
2022/01/31 05:48:26;;;;;;;0.00;0.00;;;4.30;99.90;;;;;;5064296;28;20420;-69
2022/01/31 05:50:52;;;;;;;0.00;0.00;;;4.30;99.90;;;;;;5063961;28;20048;-67
2022/01/31 05:53:17;;;;;;;0.00;0.00;;;4.40;99.90;;;;;;5045243;28;20047;-67
2022/01/31 05:55:45;;;;;;;0.00;0.00;;;4.40;99.90;;;;;;5063998;28;20044;-70
2022/01/31 05:58:11;;;;;;;0.00;0.00;;;4.40;99.90;;;;;;5063274;28;20127;-68
2022/01/31 06:00:37;;;;;;;0.00;0.00;;;4.30;99.90;;;;;;5044377;28;20127;-67
2022/01/31 06:03:03;;;;;;;0.00;0.00;;;4.30;99.90;;;;;;5062948;28;20118;-67
2022/01/31 06:05:29;;;;;;;0.00;0.00;;;4.20;99.90;;;;;;5063972;28;20098;-67
2022/01/31 06:07:56;;;;;;;0.00;0.00;;;4.10;99.90;;;;;;5063988;28;20639;-67
2022/01/31 06:10:25;;;;;;;0.00;0.00;;;4.10;99.90;;;;;;5063142;28;20440;-67
2022/01/31 06:12:55;;;;;;;0.00;0.00;;;4.10;99.90;;;;;;5062649;28;20041;-67
2022/01/31 06:15:20;;;;;;;0.00;0.00;;;4.10;99.90;;;;;;5062328;28;20647;-67
2022/01/31 06:17:46;;;;;;;0.00;0.00;;;4.10;99.90;;;;;;5062762;28;20079;-67
2022/01/31 06:20:12;;;;;;;0.00;0.00;;;4.10;99.90;;;;;;5062822;28;20043;-67
2022/01/31 06:23:04;;;;;;;0.00;0.00;;;4.10;99.90;;;;;;5044845;28;20052;-66
2022/01/31 06:25:31;;;;;;;0.00;0.00;;;4.40;99.90;;;;;;5042311;28;20049;-67
2022/01/31 06:27:56;;;;;;;0.00;0.00;;;4.10;99.90;;;;;;5067869;28;20044;-67
2022/01/31 06:30:22;;;;;;;0.00;0.00;;;4.10;99.90;;;;;;5050371;28;20078;-67
2022/01/31 06:32:48;;;;;;;0.00;0.00;;;4.10;99.90;;;;;;5061716;28;20526;-67
2022/01/31 06:35:13;;;;;;;0.00;0.00;;;5.10;99.90;;;;;;5062527;28;20482;-67
2022/01/31 06:37:39;;;;;;;0.00;0.00;;;4.00;99.90;;;;;;5044102;28;20384;-67
2022/01/31 06:40:05;;;;;;;0.00;0.00;;;4.00;99.90;;;;;;5044900;28;20398;-67
2022/01/31 06:42:32;;;;;;;0.00;0.00;;;4.00;99.90;;;;;;5044537;28;20062;-67
2022/01/31 06:44:57;;;;;;;0.00;0.00;;;4.00;99.90;;;;;;5044952;28;20079;-67
2022/01/31 06:47:24;;;;;;;0.00;0.00;;;4.00;99.90;;;;;;5062187;28;20040;-67
2022/01/31 06:49:50;;;;;;;0.00;0.00;;;3.90;99.90;;;;;;5062368;28;21022;-67
2022/01/31 06:52:16;;;;;;;0.00;0.00;;;3.90;99.90;;;;;;5060909;28;20049;-67
2022/01/31 06:54:43;;;;;;;0.00;0.00;;;3.90;99.90;;;;;;5062664;28;20051;-67
2022/01/31 06:57:09;;;;;;;0.00;0.00;;;3.90;99.90;;;;;;5043588;28;20575;-67
2022/01/31 06:59:35;;;;;;;0.00;0.00;;;3.90;99.90;;;;;;5062081;28;20045;-67
2022/01/31 07:02:00;;;;;;;0.00;0.00;;;3.90;99.90;;;;;;5061684;28;20062;-67
2022/01/31 07:04:26;;;;;;;0.00;0.00;;;3.80;99.90;;;;;;5040973;28;20041;-67
2022/01/31 07:06:52;;;;;;;0.00;0.00;;;3.80;99.90;;;;;;5040343;28;20096;-67
2022/01/31 07:09:17;;;;;;;0.00;0.00;;;3.70;99.90;;;;;;5057613;28;20052;-67
2022/01/31 07:11:43;;;;;;;0.00;0.00;;;3.80;99.90;;;;;;5042075;28;20041;-67
2022/01/31 07:16:53;;;;;;;0.00;0.00;;;4.00;99.90;;;;;;5041029;28;20053;-66
2022/01/31 07:19:22;;;;;;;0.00;0.00;;;4.80;99.90;;;;;;5057524;28;20466;-66
2022/01/31 07:21:50;;;;;;;0.00;0.00;;;3.80;99.90;;;;;;5041513;28;20049;-66
2022/01/31 07:24:43;;;;;;;0.00;0.00;;;3.80;99.90;;;;;;5041610;28;20067;-67
2022/01/31 07:27:10;;;;;;;0.00;0.00;;;3.90;99.90;;;;;;5042748;28;20119;-69
2022/01/31 07:29:36;;;;;;;0.00;0.00;;;3.90;99.90;;;;;;5049569;28;20471;-69
2022/01/31 07:32:02;;;;;;;0.00;0.00;;;3.80;99.90;;;;;;5041031;28;20080;-68
2022/01/31 07:34:28;;;;;;;0.00;0.00;;;3.90;99.90;;;;;;5042119;28;20437;-68
2022/01/31 07:36:55;;;;;;;0.00;0.00;;;3.90;99.90;;;;;;5039489;28;20041;-68
2022/01/31 07:39:21;;;;;;;0.00;0.00;;;3.90;99.90;;;;;;5040055;28;20048;-68
2022/01/31 07:41:48;;;;;;;0.00;0.00;;;3.90;99.90;;;;;;5041159;28;20442;-68
2022/01/31 07:44:14;;;;;;;0.00;0.00;;;3.90;99.90;;;;;;5040182;28;20045;-68
2022/01/31 07:46:40;;;;;;;0.00;0.00;;;3.90;99.90;;;;;;5039193;28;20432;-68
2022/01/31 07:49:07;;;;;;;0.00;0.00;;;3.90;99.90;;;;;;5041390;28;20098;-67
2022/01/31 07:51:35;;;;;;;0.00;0.00;;;3.90;99.90;;;;;;5041421;28;20053;-67
2022/01/31 07:54:01;;;;;;;0.00;0.00;;;4.00;99.90;;;;;;5041814;28;20377;-67
2022/01/31 07:56:27;;;;;;;0.00;0.00;;;4.00;99.90;;;;;;5041067;28;20052;-67
2022/01/31 07:58:52;;;;;;;0.00;0.00;;;4.00;99.90;;;;;;5041313;28;20418;-68
2022/01/31 08:01:18;;;;;;;0.00;0.00;;;4.00;99.90;;;;;;5039123;28;20053;-68
2022/01/31 08:03:45;;;;;;;0.00;0.00;;;4.00;99.90;;;;;;5048513;28;20079;-67
2022/01/31 08:06:11;;;;;;;0.00;0.00;;;4.10;99.90;;;;;;5060563;28;20098;-67
2022/01/31 08:08:37;;;;;;;0.00;0.00;;;4.10;99.90;;;;;;5061270;28;20514;-67
2022/01/31 08:11:04;;;;;;;0.00;0.00;;;4.10;99.90;;;;;;5061814;28;20028;-67
2022/01/31 08:13:31;;;;;;;0.00;0.00;;;4.10;99.90;;;;;;5060838;28;20073;-67
2022/01/31 08:16:15;;;;;;;0.00;0.00;;;4.10;99.90;;;;;;5042508;28;20044;-67
2022/01/31 08:18:43;;;;;;;0.00;0.00;;;4.20;99.90;;;;;;5061097;28;20071;-68
2022/01/31 08:21:11;;;;;;;0.00;0.00;;;4.20;99.90;;;;;;5060421;28;20044;-68
2022/01/31 08:23:37;;;;;;;0.00;0.00;;;4.20;99.90;;;;;;5043319;28;20052;-67
2022/01/31 08:26:04;;;;;;;0.00;0.00;;;4.20;99.90;;;;;;5061287;28;20037;-67
2022/01/31 08:28:43;;;;;;;0.00;0.00;;;4.30;99.90;;;;;;5052884;28;20314;-68
2022/01/31 08:31:19;;;;;;;0.00;0.00;;;4.40;99.90;;;;;;5080677;28;20070;-67
2022/01/31 08:36:12;;;;;;;0.00;0.00;;;4.40;99.90;;;;;;5081034;28;20371;-67
2022/01/31 08:38:39;;;;;;;0.00;0.00;;;4.40;99.90;;;;;;5080612;28;20052;-69
2022/01/31 08:41:07;;;;;;;0.00;0.00;;;6.00;99.90;;;;;;5084316;28;20454;-68
2022/01/31 08:43:37;;;;;;;0.00;0.00;;;5.90;99.90;;;;;;5084880;28;20085;-68
2022/01/31 08:46:03;;;;;;;0.00;0.00;;;4.70;99.90;;;;;;5065770;28;20044;-68
2022/01/31 08:48:30;;;;;;;0.00;0.00;;;4.50;99.90;;;;;;5067035;28;20051;-68
2022/01/31 08:50:56;;;;;;;0.00;0.00;;;4.50;99.90;;;;;;5085727;28;20048;-68
2022/01/31 08:53:23;;;;;;;0.00;0.00;;;4.60;99.90;;;;;;5084930;28;20048;-66
2022/01/31 08:56:21;;;;;;;0.00;0.00;;;4.50;99.90;;;;;;5057244;28;20080;-69
2022/01/31 08:58:48;;;;;;;0.00;0.00;;;4.60;99.90;;;;;;5013157;28;20052;-69
2022/01/31 09:01:19;;;;;;;0.00;0.00;;;4.60;99.90;;;;;;5073725;28;20185;-69
2022/01/31 09:06:24;;;;;;;0.00;0.00;;;4.80;99.90;;;;;;5064449;28;20049;-69
2022/01/31 09:08:51;;;;;;;0.00;0.00;;;5.00;99.90;;;;;;5063781;28;20051;-70
2022/01/31 09:11:17;;;;;;;0.00;0.00;;;5.20;99.90;;;;;;5051940;28;20055;-68
2022/01/31 09:13:43;;;;;;;0.00;0.00;;;5.20;99.90;;;;;;5054556;28;20110;-69
2022/01/31 09:16:09;;;;;;;0.00;0.00;;;5.20;99.90;;;;;;5055058;28;20494;-67
2022/01/31 09:18:35;;;;;;;0.00;0.00;;;5.20;99.90;;;;;;5074062;28;20051;-68
2022/01/31 09:21:02;;;;;;;0.00;0.00;;;5.30;99.90;;;;;;5073144;28;20083;-68
2022/01/31 09:23:28;;;;;;;0.00;0.00;;;5.60;99.90;;;;;;5056291;28;20044;-70
2022/01/31 09:25:55;;;;;;;0.00;0.00;;;5.40;99.90;;;;;;5039339;28;20118;-68
2022/01/31 09:28:21;;;;;;;0.00;0.00;;;5.40;99.90;;;;;;5078394;28;20036;-68
2022/01/31 09:30:47;;;;;;;0.00;0.00;;;5.30;99.90;;;;;;5068401;28;20049;-68
2022/01/31 09:33:14;;;;;;;0.00;0.00;;;5.40;99.90;;;;;;5045989;28;20075;-68
2022/01/31 09:35:40;;;;;;;0.00;0.00;;;5.40;99.90;;;;;;5045712;28;20063;-68
2022/01/31 09:38:06;;;;;;;0.00;0.00;;;5.40;99.90;;;;;;5063658;28;20131;-68
2022/01/31 09:40:32;;;;;;;0.00;0.00;;;5.40;99.90;;;;;;5046038;28;20123;-67
2022/01/31 09:51:05;;;;;;;0.00;0.00;;;5.80;99.90;;;;;;5053174;28;20048;-68
2022/01/31 09:53:33;;;;;;;0.00;0.00;;;6.00;99.90;;;;;;5050339;28;20067;-68
2022/01/31 09:56:00;;;;;;;0.00;0.00;;;6.20;99.90;;;;;;5074854;28;20398;-68
2022/01/31 09:58:29;;;;;;;0.00;0.00;;;6.60;99.90;;;;;;5057022;28;20063;-69
2022/01/31 10:01:08;;;;;;;0.00;0.00;;;8.40;99.90;;;;;;5079888;28;20081;-68
2022/01/31 10:03:43;;;;;;;0.00;0.00;;;7.60;99.90;;;;;;5083432;28;20060;-68
2022/01/31 10:06:20;;;;;;;0.00;0.00;;;7.70;99.90;;;;;;5083052;28;20058;-68
2022/01/31 10:08:46;;;;;;;0.00;0.00;;;7.50;99.90;;;;;;5065891;28;20940;-68
2022/01/31 10:11:28;;;;;;;0.00;0.00;;;8.00;99.90;;;;;;5065328;28;20501;-67
2022/01/31 10:16:45;;;;;;;0.00;0.00;;;10.00;99.90;;;;;;5065012;28;20105;-68
2022/01/31 10:19:11;;;;;;;0.00;0.00;;;10.10;99.90;;;;;;5083037;28;20071;-68
2022/01/31 10:22:17;;;;;;;0.00;0.00;;;11.10;99.90;;;;;;5065322;28;20110;-68
2022/01/31 10:24:45;;;;;;;0.00;0.00;;;10.40;99.90;;;;;;4964720;28;20193;-68
2022/01/31 10:27:15;;;;;;;0.00;0.00;;;10.70;99.90;;;;;;4962865;28;20050;-68
2022/01/31 10:29:43;;;;;;;0.00;0.00;;;10.60;99.90;;;;;;5011451;28;20438;-68
2022/01/31 10:32:21;;;;;;;0.00;0.00;;;10.50;99.90;;;;;;5064467;28;20044;-68
2022/01/31 10:34:52;;;;;;;0.00;0.00;;;10.70;99.90;;;;;;5048020;28;20558;-68
2022/01/31 10:37:21;;;;;;;0.00;0.00;;;11.00;99.90;;;;;;5044242;28;20053;-68
2022/01/31 10:54:07;;;;;;;0.00;0.00;;;12.00;99.90;;;;;;5082655;28;20606;-67
2022/01/31 10:56:39;;;;;;;0.00;0.00;;;12.20;99.90;;;;;;5063929;28;20052;-67
2022/01/31 10:59:36;;;;;;;0.00;0.00;;;12.00;99.90;;;;;;5063318;28;20036;-67
2022/01/31 11:02:06;;;;;;;0.00;0.00;;;12.40;99.90;;;;;;5062532;28;20048;-67
2022/01/31 11:04:38;;;;;;;0.00;0.00;;;12.50;99.90;;;;;;5063729;28;20569;-66
2022/01/31 11:07:07;;;;;;;0.00;0.00;;;13.20;99.90;;;;;;5082407;28;20542;-67
2022/01/31 11:09:33;;;;;;;0.00;0.00;;;13.70;99.90;;;;;;5082298;28;20052;-67
2022/01/31 11:12:00;;;;;;;0.00;0.00;;;13.50;99.90;;;;;;5082402;28;20044;-67
2022/01/31 11:14:26;;;;;;;0.00;0.00;;;13.60;99.90;;;;;;5081828;28;20151;-67
2022/01/31 11:16:54;;;;;;;0.00;0.00;;;13.00;99.90;;;;;;5081962;28;20366;-67
2022/01/31 11:19:29;;;;;;;0.00;0.00;;;12.90;99.90;;;;;;5081353;28;20051;-67
2022/01/31 11:22:00;;;;;;;0.00;0.00;;;11.40;99.90;;;;;;5054334;28;20048;-65
2022/01/31 11:24:31;;;;;;;0.00;0.00;;;11.20;99.90;;;;;;5051656;28;20092;-65
2022/01/31 11:27:09;;;;;;;0.00;0.00;;;11.60;99.90;;;;;;5051690;28;20513;-65
2022/01/31 11:29:36;;;;;;;0.00;0.00;;;11.90;99.90;;;;;;5054478;28;20514;-58
2022/01/31 11:32:04;;;;;;;0.00;0.00;;;12.20;99.90;;;;;;5082458;28;20055;-66
2022/01/31 11:34:30;;;;;;;0.00;0.00;;;12.40;99.90;;;;;;5081292;28;20051;-66
2022/01/31 11:36:56;;;;;;;0.00;0.00;;;10.70;99.90;;;;;;5064298;28;20433;-66
2022/01/31 11:39:22;;;;;;;0.00;0.00;;;10.10;99.90;;;;;;5082088;28;20050;-66
2022/01/31 11:41:57;;;;;;;0.00;0.00;;;9.70;99.90;;;;;;5050526;28;20040;-66
2022/01/31 11:44:43;;;;;;;0.00;0.00;;;9.30;99.90;;;;;;5042900;28;20048;-67
2022/01/31 11:47:09;;;;;;;0.00;0.00;;;9.40;99.90;;;;;;5061577;28;20131;-67
2022/01/31 11:49:52;;;;;;;0.00;0.00;;;9.50;99.90;;;;;;5042987;28;20108;-67
2022/01/31 11:52:19;;;;;;;0.00;0.00;;;9.50;99.90;;;;;;5043154;28;20093;-67
2022/01/31 11:54:52;;;;;;;0.00;0.00;;;9.20;99.90;;;;;;5026941;28;20372;-68
2022/01/31 11:57:20;;;;;;;0.00;0.00;;;8.90;99.90;;;;;;5060646;28;20570;-68
2022/01/31 11:59:55;;;;;;;0.00;0.00;;;8.70;99.90;;;;;;5060344;28;20036;-68
2022/01/31 12:02:22;;;;;;;0.00;0.00;;;9.30;99.90;;;;;;5043427;28;20048;-68
2022/01/31 12:04:49;;;;;;;0.00;0.00;;;8.50;99.90;;;;;;5042246;28;20052;-67
2022/01/31 12:07:39;;;;;;;0.00;0.00;;;8.20;99.90;;;;;;5058835;28;20036;-69
2022/01/31 12:10:30;;;;;;;0.00;0.00;;;8.70;99.90;;;;;;5061322;28;20054;-68
2022/01/31 12:13:01;;;;;;;0.00;0.00;;;9.30;99.90;;;;;;5061260;28;20079;-68
2022/01/31 12:15:41;;;;;;;0.00;0.00;;;9.80;99.90;;;;;;5042087;28;20063;-68
2022/01/31 12:24:37;;;;;;;0.00;0.00;;;9.20;99.90;;;;;;4943528;28;20077;-68
2022/01/31 12:27:13;;;;;;;0.00;0.00;;;8.80;99.90;;;;;;5055145;28;20115;-67
2022/01/31 12:29:52;;;;;;;0.00;0.00;;;8.80;99.90;;;;;;5057883;28;20452;-68
2022/01/31 12:32:19;;;;;;;0.00;0.00;;;8.60;99.90;;;;;;5037181;28;20437;-70
2022/01/31 12:34:55;;;;;;;0.00;0.00;;;8.40;99.90;;;;;;5052603;28;20044;-69
2022/01/31 12:37:41;;;;;;;0.00;0.00;;;8.40;99.90;;;;;;5071005;28;20051;-69
2022/01/31 12:40:33;;;;;;;0.10;0.10;;;8.30;99.90;;;;;;5057507;28;20075;-69
2022/01/31 12:45:37;;;;;;;0.00;0.00;;;8.10;99.90;;;;;;5061672;28;20071;-68
2022/01/31 12:48:21;;;;;;;0.00;0.00;;;8.10;99.90;;;;;;5080517;28;20048;-69
2022/01/31 12:50:53;;;;;;;0.00;0.00;;;9.00;99.90;;;;;;5062844;28;20060;-69
2022/01/31 12:53:45;;;;;;;0.00;0.00;;;8.00;99.90;;;;;;5080667;28;20402;-69
2022/01/31 12:56:24;;;;;;;0.00;0.00;;;8.10;99.90;;;;;;5062896;28;20068;-67
2022/01/31 12:58:57;;;;;;;0.00;0.00;;;8.20;99.90;;;;;;5079752;28;20525;-68
2022/01/31 13:01:35;;;;;;;0.00;0.00;;;8.90;99.90;;;;;;5062336;28;20055;-68
2022/01/31 13:04:07;;;;;;;0.00;0.00;;;8.20;99.90;;;;;;5060392;28;20418;-68
2022/01/31 13:06:48;;;;;;;0.00;0.00;;;8.30;99.90;;;;;;5056730;28;20067;-68
2022/01/31 13:09:16;;;;;;;0.00;0.00;;;8.20;99.90;;;;;;5062296;28;20040;-68
2022/01/31 13:11:48;;;;;;;0.00;0.00;;;8.20;99.90;;;;;;5062203;28;20052;-68
2022/01/31 13:14:24;;;;;;;0.00;0.00;;;8.20;99.90;;;;;;5061162;28;20035;-68
2022/01/31 13:17:12;;;;;;;0.00;0.00;;;8.10;99.90;;;;;;5080525;28;20050;-71
2022/01/31 13:19:41;;;;;;;0.00;0.00;;;8.00;99.90;;;;;;5061982;28;20048;-69
2022/01/31 13:22:17;;;;;;;0.00;0.00;;;8.00;99.90;;;;;;5080247;28;20594;-68
2022/01/31 13:24:45;;;;;;;0.00;0.00;;;7.90;99.90;;;;;;5080676;28;20052;-68
2022/01/31 13:27:15;;;;;;;0.00;0.00;;;7.80;99.90;;;;;;5060288;28;20040;-68
2022/01/31 13:29:51;;;;;;;0.00;0.00;;;7.70;99.90;;;;;;5079268;28;20101;-69
2022/01/31 13:32:29;;;;;;;0.00;0.00;;;7.60;99.90;;;;;;5066078;28;20101;-69
2022/01/31 13:35:05;;;;;;;0.00;0.00;;;8.70;99.90;;;;;;5066707;28;20101;-69
2022/01/31 13:37:37;;;;;;;0.00;0.00;;;7.60;99.90;;;;;;5065613;28;20048;-69
2022/01/31 13:40:10;;;;;;;0.00;0.00;;;7.60;99.90;;;;;;5066129;28;20460;-69
2022/01/31 13:42:38;;;;;;;0.00;0.00;;;7.70;99.90;;;;;;5065775;28;20052;-69
2022/01/31 13:45:10;;;;;;;0.00;0.00;;;7.60;99.90;;;;;;5083755;28;20136;-69
2022/01/31 13:47:47;;;;;;;0.00;0.00;;;7.60;99.90;;;;;;5065345;28;20048;-70
2022/01/31 13:50:18;;;;;;;0.00;0.00;;;7.70;99.90;;;;;;5083992;28;20372;-69
2022/01/31 13:53:00;;;;;;;0.00;0.00;;;7.70;99.90;;;;;;5065681;28;20055;-69
2022/01/31 13:55:26;;;;;;;0.00;0.00;;;8.00;99.90;;;;;;5084109;28;20101;-70